15:05
Airports
History
Links
Donate
Help keep this website running!
PayPal
Bitcoin
This page is community maintained. The information is intended for PC simulator navigation or reference.
Always use approved charts for navigation.
0U6
Symms
Symms (0U6)
Caldwell, Idaho, United States (83607)
4
Lat/Lng:43° 34' 9.57" N / 116° 46' 36.5" W
43.569325 / -116.776805
Elevation:2680'ft / 817mMSL
ID / ICAO:0U6
Runways:1
Longest:32-14
Gravel 756m / 2,482ft
Nearby Weather14:56 GMT 2017-11-23
Nearby weather at KEUL, Caldwell Industrial located 8.7 nautical miles from 0U6
Altimeter: 30.09
Visibility: statute miles
Wind: 0 knots (from 000°)
Temp: 8°c / 46°f
Humidity: 100.0%

METAR: KEUL 231456Z AUTO 00000KT M1/4SM FG OVC002 08/08 A3009 RMK AO2 SLP193 T00780078 55005 RVRNO

(Powered by phpweather)
Nearby VORs <50NM
Nearby NDBs
Runway 32 / 14
Dimensions:756.4 x 18.3m 2482' x 60'ft
Surface:Gravel
Runway 32 [A]Runway 14 [B]
Heading:332°TH 152°TH
Lat:
Lng:
43° 33' 58.67"N
116° 46' 28.5"W
43° 34' 20.47"N
116° 46' 44.5"W
User Notes and Comments
43° 34' 9.57" N / 116° 46' 36.5" W
Distance To
Airport ID:
Nearby Airports
4 Davison Ranch 6.3 NM
62U N 11°
4 Frank Field 7.1 NM
63U N
(U) Homedale Muni 7.9 NM
S66 WNW 293°
(U) Caldwell Industrial 8.7 NM
KEUL ( WX ) NE 54°
(R) Sunrise Skypark 11.1 NM
ID40 SSE 161°
4 Hubler Field 11.1 NM
64U NE 38°
(U) Nampa Muni 12.7 NM
KMAN E 86°
VFR Chart
Flight Planning at SkyVector.com